Time;durP1;ratioP1;P1;durP2;ratioP2;P2;SDS_P1;SDS_P2;PMS_P1;PMS_P2;Temp;Humidity;BMP_temperature;BMP_pressure;BME280_temperature;BME280_humidity;BME280_pressure;Samples;Min_cycle;Max_cycle;Signal;HPM_P1;HPM_P2
2022/04/12 00:01:34;;;;;;;16.27;7.60;;;6.30;99.90;;;-146.41;100.00;57768.22;5004253;28;20138;-70
2022/04/12 00:04:03;;;;;;;13.25;7.13;;;6.30;99.90;;;-146.41;100.00;57768.22;4999027;28;20078;-70
2022/04/12 00:06:30;;;;;;;10.82;6.20;;;6.20;99.90;;;-146.41;100.00;57768.22;5001673;28;20107;-70
2022/04/12 00:08:57;;;;;;;10.48;5.68;;;6.20;99.90;;;-146.41;100.00;57768.22;5001787;28;20073;-70
2022/04/12 00:11:25;;;;;;;13.48;7.05;;;6.30;99.90;;;-146.41;100.00;57768.22;5001726;28;20492;-70
2022/04/12 00:13:52;;;;;;;13.75;7.32;;;6.30;99.90;;;-146.41;100.00;57768.22;4999759;28;20215;-70
2022/04/12 00:16:19;;;;;;;12.10;6.45;;;6.20;99.90;;;-146.41;100.00;57768.22;4998573;28;20117;-69
2022/04/12 00:19:04;;;;;;;14.40;7.75;;;6.30;99.90;;;-146.41;100.00;57768.22;4999537;28;20057;-70
2022/04/12 00:21:34;;;;;;;14.43;7.60;;;6.20;99.90;;;-146.41;100.00;57768.22;5003418;28;20069;-70
2022/04/12 00:24:07;;;;;;;11.98;7.00;;;6.20;99.90;;;-146.41;100.00;57768.22;4998885;28;20049;-69
2022/04/12 00:26:34;;;;;;;13.40;6.22;;;6.10;99.90;;;-146.41;100.00;57768.22;4995686;28;20065;-70
2022/04/12 00:29:02;;;;;;;13.88;6.75;;;6.10;99.90;;;-146.41;100.00;57768.22;5006080;28;20060;-70
2022/04/12 00:31:31;;;;;;;13.18;7.38;;;6.10;99.90;;;-146.41;100.00;57768.22;4999785;28;20046;-69
2022/04/12 00:33:59;;;;;;;11.05;6.13;;;6.10;99.90;;;-146.41;100.00;57768.22;5001375;28;20046;-69
2022/04/12 00:36:26;;;;;;;11.75;7.13;;;6.10;99.90;;;-146.41;100.00;57768.22;4985248;28;20049;-69
2022/04/12 00:38:53;;;;;;;15.93;7.45;;;6.10;99.90;;;-146.41;100.00;57768.22;4999509;28;20452;-69
2022/04/12 00:41:20;;;;;;;12.75;6.45;;;6.00;99.90;;;-146.41;100.00;57768.22;4983379;28;20086;-70
2022/04/12 00:43:47;;;;;;;11.35;6.30;;;6.00;99.90;;;-146.41;100.00;57768.22;5003755;28;20057;-70
2022/04/12 00:46:14;;;;;;;16.92;8.20;;;6.00;99.90;;;-146.41;100.00;57768.22;5001747;28;20097;-70
2022/04/12 00:48:41;;;;;;;17.58;8.68;;;6.00;99.90;;;-146.41;100.00;57768.22;5002525;28;20528;-70
2022/04/12 00:51:09;;;;;;;17.35;8.77;;;5.90;99.90;;;-146.41;100.00;57768.22;5002681;28;20125;-70
2022/04/12 00:53:37;;;;;;;16.73;8.40;;;5.90;99.90;;;-146.41;100.00;57768.22;5000977;28;20077;-70
2022/04/12 00:56:04;;;;;;;16.85;8.57;;;5.80;99.90;;;-146.41;100.00;57768.22;5000445;28;20056;-70
2022/04/12 00:58:33;;;;;;;14.27;7.22;;;5.80;99.90;;;-146.41;100.00;57768.22;4997947;28;20062;-70
2022/04/12 01:00:59;;;;;;;17.92;8.05;;;5.80;99.90;;;-146.41;100.00;57768.22;5001464;28;20051;-70
2022/04/12 01:03:27;;;;;;;13.23;6.53;;;5.80;99.90;;;-146.41;100.00;57768.22;4999715;28;20104;-70
2022/04/12 01:05:56;;;;;;;11.90;6.25;;;5.80;99.90;;;-146.41;100.00;57768.22;4999523;28;20136;-69
2022/04/12 01:08:23;;;;;;;12.02;5.88;;;5.90;99.90;;;-146.41;100.00;57768.22;5001348;28;20499;-69
2022/04/12 01:10:52;;;;;;;12.43;5.30;;;5.90;99.90;;;-146.41;100.00;57768.22;4998525;28;20121;-70
2022/04/12 01:13:20;;;;;;;11.00;4.70;;;5.80;99.90;;;-146.41;100.00;57768.22;4995915;28;20042;-70
2022/04/12 01:15:48;;;;;;;11.38;4.95;;;5.70;99.90;;;-146.41;100.00;57768.22;4998689;28;20058;-70
2022/04/12 01:18:15;;;;;;;11.27;4.38;;;5.70;99.90;;;-146.41;100.00;57768.22;4996647;28;20112;-68
2022/04/12 01:20:43;;;;;;;6.13;3.65;;;5.70;99.90;;;-146.41;100.00;57768.22;5001928;28;20093;-69
2022/04/12 01:23:22;;;;;;;6.05;3.60;;;5.70;99.90;;;-146.41;100.00;57768.22;4994884;28;20065;-68
2022/04/12 01:25:49;;;;;;;10.40;4.82;;;5.70;99.90;;;-146.41;100.00;57768.22;5000192;28;20474;-69
2022/04/12 01:28:16;;;;;;;7.40;3.92;;;5.70;99.90;;;-146.41;100.00;57768.22;4998467;28;20129;-68
2022/04/12 01:30:43;;;;;;;8.63;4.50;;;5.70;99.90;;;-146.41;100.00;57768.22;5002654;28;20050;-69
2022/04/12 01:33:10;;;;;;;6.80;3.65;;;5.70;99.90;;;-146.41;100.00;57768.22;4998980;28;20046;-68
2022/04/12 01:35:38;;;;;;;6.68;3.30;;;5.60;99.90;;;-146.41;100.00;57768.22;5001537;28;20192;-69
2022/04/12 01:38:05;;;;;;;7.00;3.60;;;5.60;99.90;;;-146.41;100.00;57768.22;4997114;28;20690;-69
2022/04/12 01:40:32;;;;;;;10.52;3.55;;;5.60;99.90;;;-146.41;100.00;57768.22;4998330;28;20058;-69
2022/04/12 01:42:59;;;;;;;9.40;3.80;;;5.50;99.90;;;-146.41;100.00;57768.22;4998911;28;20082;-69
2022/04/12 01:45:27;;;;;;;6.43;3.05;;;5.40;99.90;;;-146.41;100.00;57768.22;4994931;28;20129;-70
2022/04/12 01:47:58;;;;;;;6.78;3.20;;;5.50;99.90;;;-146.41;100.00;57768.22;4996802;28;20468;-68
2022/04/12 01:50:25;;;;;;;7.53;2.70;;;5.50;99.90;;;-146.41;100.00;57768.22;4999769;28;20096;-69
2022/04/12 01:52:52;;;;;;;6.82;2.63;;;5.60;99.90;;;-146.41;100.00;57768.22;4999202;28;20148;-69
2022/04/12 01:55:19;;;;;;;6.65;3.42;;;5.60;99.90;;;-146.41;100.00;57768.22;4998172;28;20121;-70
2022/04/12 01:57:46;;;;;;;6.57;3.30;;;5.60;99.90;;;-146.41;100.00;57768.22;4981453;28;20105;-69
2022/04/12 02:00:14;;;;;;;7.43;2.65;;;5.50;99.90;;;-146.41;100.00;57768.22;5000532;28;20304;-69
2022/04/12 02:02:40;;;;;;;5.32;2.92;;;5.50;99.90;;;-146.41;100.00;57768.22;5000292;28;20058;-69
2022/04/12 02:05:10;;;;;;;8.05;3.10;;;5.50;99.90;;;-146.41;100.00;57768.22;5002333;28;20416;-69
2022/04/12 02:07:37;;;;;;;8.25;3.50;;;5.50;99.90;;;-146.41;100.00;57768.22;4997297;28;20054;-69
2022/04/12 02:10:05;;;;;;;6.40;3.20;;;5.40;99.90;;;-146.41;100.00;57768.22;4998657;28;20145;-69
2022/04/12 02:12:32;;;;;;;6.30;3.10;;;5.40;99.90;;;-146.41;100.00;57768.22;4999839;28;20431;-69
2022/04/12 02:14:59;;;;;;;6.80;3.50;;;5.40;99.90;;;-146.41;100.00;57768.22;5000970;28;20531;-69
2022/04/12 02:17:26;;;;;;;7.35;3.33;;;5.40;99.90;;;-146.41;100.00;57768.22;4998015;28;20116;-69
2022/04/12 02:19:54;;;;;;;9.95;2.85;;;5.40;99.90;;;-146.41;100.00;57768.22;5001036;28;20510;-69
2022/04/12 02:22:21;;;;;;;6.20;3.15;;;5.40;99.90;;;-146.41;100.00;57768.22;4998810;28;20054;-70
2022/04/12 02:24:48;;;;;;;7.65;3.50;;;5.40;99.90;;;-146.41;100.00;57768.22;4997330;28;20137;-69
2022/04/12 02:27:15;;;;;;;8.65;3.80;;;5.30;99.90;;;-146.41;100.00;57768.22;5001451;28;20144;-70
2022/04/12 02:29:42;;;;;;;5.15;2.90;;;5.40;99.90;;;-146.41;100.00;57768.22;4998323;28;20502;-70
2022/04/12 02:32:09;;;;;;;6.43;3.20;;;5.40;99.90;;;-146.41;100.00;57768.22;4996732;28;20039;-70
2022/04/12 02:34:36;;;;;;;6.10;2.63;;;5.30;99.90;;;-146.41;100.00;57768.22;5005584;28;20074;-70
2022/04/12 02:37:03;;;;;;;7.32;3.40;;;5.40;99.90;;;-146.41;100.00;57768.22;4998752;28;20078;-70
2022/04/12 02:39:31;;;;;;;6.20;3.17;;;5.30;99.90;;;-146.41;100.00;57768.22;4997233;28;20120;-70
2022/04/12 02:41:58;;;;;;;6.60;3.72;;;5.30;99.90;;;-146.41;100.00;57768.22;4995080;28;20097;-70
2022/04/12 02:44:25;;;;;;;6.70;3.63;;;5.30;99.90;;;-146.41;100.00;57768.22;4998232;28;20053;-71
2022/04/12 02:46:52;;;;;;;8.77;3.95;;;5.20;99.90;;;-146.41;100.00;57768.22;4997059;28;20481;-68
2022/04/12 02:49:19;;;;;;;7.50;3.35;;;5.20;99.90;;;-146.41;100.00;57768.22;4997238;28;20113;-68
2022/04/12 02:51:46;;;;;;;10.20;3.75;;;5.30;99.90;;;-146.41;100.00;57768.22;4999382;28;20721;-71
2022/04/12 02:54:14;;;;;;;6.68;3.17;;;5.30;99.90;;;-146.41;100.00;57768.22;5000835;28;20132;-68
2022/04/12 02:56:41;;;;;;;7.32;3.35;;;5.30;99.90;;;-146.41;100.00;57768.22;5004418;28;20129;-70
2022/04/12 02:59:08;;;;;;;6.93;3.22;;;5.20;99.90;;;-146.41;100.00;57768.22;4998037;28;20046;-69
2022/04/12 03:01:36;;;;;;;6.05;3.20;;;5.20;99.90;;;-146.41;100.00;57768.22;4997712;28;20077;-70
2022/04/12 03:04:03;;;;;;;6.18;2.95;;;5.20;99.90;;;-146.41;100.00;57768.22;4996864;28;20053;-70
2022/04/12 03:06:31;;;;;;;7.55;3.97;;;5.20;99.90;;;-146.41;100.00;57768.22;5003614;28;20050;-69
2022/04/12 03:08:58;;;;;;;7.18;4.55;;;5.10;99.90;;;-146.41;100.00;57768.22;4999661;28;20061;-70
2022/04/12 03:11:25;;;;;;;7.40;3.75;;;5.10;99.90;;;-146.41;100.00;57768.22;4993941;28;20173;-70
2022/04/12 03:13:52;;;;;;;6.38;3.30;;;5.20;99.90;;;-146.41;100.00;57768.22;4997965;28;20590;-70
2022/04/12 03:16:19;;;;;;;4.88;2.88;;;5.10;99.90;;;-146.41;100.00;57768.22;4996227;28;20085;-71
2022/04/12 03:18:46;;;;;;;6.57;3.50;;;5.10;99.90;;;-146.41;100.00;57768.22;5002039;28;20047;-71
2022/04/12 03:21:13;;;;;;;6.18;3.42;;;5.10;99.90;;;-146.41;100.00;57768.22;4995813;28;20631;-69
2022/04/12 03:23:40;;;;;;;6.85;3.55;;;5.00;99.90;;;-146.41;100.00;57768.22;4996034;28;20501;-69
2022/04/12 03:26:07;;;;;;;9.48;4.85;;;5.00;99.90;;;-146.41;100.00;57768.22;5004907;28;20070;-69
2022/04/12 03:28:35;;;;;;;7.80;4.85;;;5.00;99.90;;;-146.41;100.00;57768.22;5000969;28;20050;-69
2022/04/12 03:31:02;;;;;;;8.48;4.47;;;5.10;99.90;;;-146.41;100.00;57768.22;5002412;28;20226;-69
2022/04/12 03:33:29;;;;;;;10.50;4.40;;;5.20;99.90;;;-146.41;100.00;57768.22;5002573;28;20046;-69
2022/04/12 03:35:56;;;;;;;6.63;4.38;;;5.20;99.90;;;-146.41;100.00;57768.22;5005005;28;20081;-69
2022/04/12 03:38:23;;;;;;;6.70;4.18;;;5.10;99.90;;;-146.41;100.00;57768.22;5001440;28;20145;-69
2022/04/12 03:40:50;;;;;;;7.53;4.68;;;5.10;99.90;;;-146.41;100.00;57768.22;4997525;28;20496;-69
2022/04/12 03:43:17;;;;;;;9.13;4.10;;;5.10;99.90;;;-146.41;100.00;57768.22;4984782;28;20042;-68
2022/04/12 03:45:44;;;;;;;6.20;3.40;;;5.20;99.90;;;-146.41;100.00;57768.22;4998309;28;20054;-68
2022/04/12 03:48:11;;;;;;;5.10;3.28;;;5.30;99.90;;;-146.41;100.00;57768.22;4999902;28;20042;-69
2022/04/12 03:50:39;;;;;;;5.97;3.35;;;5.30;99.90;;;-146.41;100.00;57768.22;5000122;28;20161;-69
2022/04/12 03:53:06;;;;;;;6.70;3.70;;;5.30;99.90;;;-146.41;100.00;57768.22;5000915;28;20125;-69
2022/04/12 03:55:34;;;;;;;6.95;4.13;;;5.30;99.90;;;-146.41;100.00;57768.22;5000324;28;20100;-68
2022/04/12 03:58:07;;;;;;;8.40;4.65;;;5.40;99.90;;;-146.41;100.00;57768.22;4999739;28;20104;-69
2022/04/12 04:00:35;;;;;;;8.48;4.00;;;5.30;99.90;;;-146.41;100.00;57768.22;4996586;28;20068;-69
2022/04/12 04:03:03;;;;;;;6.65;4.05;;;5.40;99.90;;;-146.41;100.00;57768.22;5003434;28;20476;-69
2022/04/12 04:05:30;;;;;;;7.30;4.40;;;5.30;99.90;;;-146.41;100.00;57768.22;4999963;28;20075;-69
2022/04/12 04:07:57;;;;;;;6.68;3.95;;;5.30;99.90;;;-146.41;100.00;57768.22;5001854;28;21546;-69
2022/04/12 04:10:24;;;;;;;7.80;3.15;;;5.30;99.90;;;-146.41;100.00;57768.22;4998531;28;20403;-69
2022/04/12 04:12:53;;;;;;;7.18;3.97;;;5.40;99.90;;;-146.41;100.00;57768.22;5001446;28;20479;-69
2022/04/12 04:15:21;;;;;;;6.18;3.67;;;5.40;99.90;;;-146.41;100.00;57768.22;5001336;28;20046;-69
2022/04/12 04:17:49;;;;;;;7.43;4.47;;;5.40;99.90;;;-146.41;100.00;57768.22;5001409;28;20132;-69
2022/04/12 04:20:18;;;;;;;7.10;4.22;;;5.40;99.90;;;-146.41;100.00;57768.22;5017365;28;20136;-69
2022/04/12 04:22:46;;;;;;;9.55;5.53;;;5.40;99.90;;;-146.41;100.00;57768.22;4996226;28;20055;-70
2022/04/12 04:25:14;;;;;;;6.03;3.95;;;5.40;99.90;;;-146.41;100.00;57768.22;5004561;28;20343;-69
2022/04/12 04:27:42;;;;;;;7.38;4.38;;;5.40;99.90;;;-146.41;100.00;57768.22;4999165;28;20085;-69
2022/04/12 04:30:10;;;;;;;10.73;6.32;;;5.30;99.90;;;-146.41;100.00;57768.22;5000885;28;20485;-69
2022/04/12 04:32:39;;;;;;;10.05;5.45;;;5.30;99.90;;;-146.41;100.00;57768.22;4999046;28;20099;-69
2022/04/12 04:35:06;;;;;;;10.00;5.97;;;5.20;99.90;;;-146.41;100.00;57768.22;4998518;28;20523;-69
2022/04/12 04:37:45;;;;;;;9.85;6.47;;;5.20;99.90;;;-146.41;100.00;57768.22;5000053;28;20137;-69
2022/04/12 04:40:22;;;;;;;12.40;7.97;;;5.30;99.90;;;-146.41;100.00;57768.22;5000175;28;20108;-69
2022/04/12 04:42:53;;;;;;;13.60;8.85;;;5.30;99.90;;;-146.41;100.00;57768.22;5000018;28;20058;-69
2022/04/12 04:45:20;;;;;;;18.35;11.07;;;5.30;99.90;;;-146.41;100.00;57768.22;5002854;28;20046;-69
2022/04/12 04:47:58;;;;;;;17.45;11.77;;;5.40;99.90;;;-146.41;100.00;57768.22;4997652;28;20726;-69
2022/04/12 04:50:29;;;;;;;14.52;9.43;;;5.40;99.90;;;-146.41;100.00;57768.22;4985859;28;20118;-69
2022/04/12 04:53:02;;;;;;;16.55;11.48;;;5.40;99.90;;;-146.41;100.00;57768.22;5001600;28;20077;-69
2022/04/12 04:55:30;;;;;;;17.33;12.20;;;5.40;99.90;;;-146.41;100.00;57768.22;5001331;28;20365;-70
2022/04/12 04:57:59;;;;;;;14.07;8.32;;;5.30;99.90;;;-146.41;100.00;57768.22;5001003;28;20157;-69
2022/04/12 05:00:29;;;;;;;10.15;7.10;;;5.40;99.90;;;-146.41;100.00;57768.22;5001110;28;20171;-69
2022/04/12 05:02:58;;;;;;;10.02;6.88;;;5.40;99.90;;;-146.41;100.00;57768.22;4985519;28;20054;-69
2022/04/12 05:05:26;;;;;;;16.77;11.50;;;5.40;99.90;;;-146.41;100.00;57768.22;5000227;28;20085;-69
2022/04/12 05:07:56;;;;;;;18.50;11.25;;;5.40;99.90;;;-146.41;100.00;57768.22;4994564;28;20173;-71
2022/04/12 05:10:30;;;;;;;17.35;11.70;;;5.30;99.90;;;-146.41;100.00;57768.22;4996965;28;20073;-69
2022/04/12 05:13:01;;;;;;;10.57;7.03;;;5.40;99.90;;;-146.41;100.00;57768.22;5000060;28;20046;-69
2022/04/12 05:15:29;;;;;;;7.47;3.83;;;5.50;99.90;;;-146.41;100.00;57768.22;5002054;28;20109;-69
2022/04/12 05:18:02;;;;;;;11.93;7.68;;;5.50;99.90;;;-146.41;100.00;57768.22;4998607;28;20038;-69
2022/04/12 05:20:29;;;;;;;10.35;4.65;;;5.50;99.90;;;-146.41;100.00;57768.22;4997852;28;20177;-69
2022/04/12 05:22:56;;;;;;;12.48;6.68;;;5.50;99.90;;;-146.41;100.00;57768.22;5001660;28;20104;-69
2022/04/12 05:25:23;;;;;;;25.33;17.13;;;5.60;99.90;;;-146.41;100.00;57768.22;4998163;28;20645;-70
2022/04/12 05:27:50;;;;;;;26.15;17.77;;;5.50;99.90;;;-146.41;100.00;57768.22;5000895;28;20144;-68
2022/04/12 05:30:18;;;;;;;34.10;23.73;;;5.60;99.90;;;-146.41;100.00;57768.22;5000162;28;20543;-70
2022/04/12 05:32:45;;;;;;;37.20;25.30;;;5.50;99.90;;;-146.41;100.00;57768.22;5001463;28;20056;-70
2022/04/12 05:35:13;;;;;;;38.60;24.15;;;5.60;99.90;;;-146.41;100.00;57768.22;5001998;28;20052;-69
2022/04/12 05:37:46;;;;;;;37.33;25.02;;;5.60;99.90;;;-146.41;100.00;57768.22;5000514;28;20137;-70
2022/04/12 05:40:15;;;;;;;37.38;25.48;;;5.70;99.90;;;-146.41;100.00;57768.22;5000086;28;20078;-69
2022/04/12 05:42:43;;;;;;;22.30;14.82;;;5.80;99.90;;;-146.41;100.00;57768.22;4996256;28;20108;-70
2022/04/12 05:45:12;;;;;;;21.27;13.27;;;5.90;99.90;;;-146.41;100.00;57768.22;5002144;28;20073;-70
2022/04/12 05:48:00;;;;;;;14.32;9.75;;;6.10;99.90;;;-146.41;100.00;57768.22;4996133;28;20054;-69
2022/04/12 05:50:28;;;;;;;12.23;6.72;;;6.20;99.90;;;-146.41;100.00;57768.22;5000589;28;20065;-68
2022/04/12 05:52:56;;;;;;;11.45;6.68;;;6.20;99.90;;;-146.41;100.00;57768.22;5000579;28;20073;-68
2022/04/12 05:55:26;;;;;;;14.00;7.88;;;6.20;99.90;;;-146.41;100.00;57768.22;4999536;28;20492;-69
2022/04/12 05:58:00;;;;;;;19.60;11.30;;;6.30;99.90;;;-146.41;100.00;57768.22;5002354;28;20089;-69
2022/04/12 06:00:30;;;;;;;8.15;4.90;;;6.50;99.90;;;-146.41;100.00;57768.22;5004456;28;20044;-70
2022/04/12 06:02:58;;;;;;;9.38;4.45;;;6.60;99.90;;;-146.41;100.00;57768.22;4997907;28;20050;-69
2022/04/12 06:05:32;;;;;;;14.52;6.82;;;6.70;99.90;;;-146.41;100.00;57768.22;4998126;28;20080;-69
2022/04/12 06:08:00;;;;;;;9.00;4.40;;;6.70;99.90;;;-146.41;100.00;57768.22;4994962;28;20062;-69
2022/04/12 06:10:28;;;;;;;7.47;3.58;;;6.80;99.90;;;-146.41;100.00;57768.22;5001403;28;20050;-69
2022/04/12 06:12:59;;;;;;;5.38;2.67;;;7.10;99.90;;;-146.41;100.00;57768.22;4987258;28;20056;-69
2022/04/12 06:15:26;;;;;;;7.03;2.47;;;7.40;99.90;;;-146.41;100.00;57768.22;4979927;28;20058;-69
2022/04/12 06:17:53;;;;;;;6.05;2.53;;;7.70;99.90;;;-146.41;100.00;57768.22;5001918;28;20667;-70
2022/04/12 06:20:21;;;;;;;4.15;1.98;;;8.00;99.90;;;-146.41;100.00;57768.22;4996632;28;20073;-69
2022/04/12 06:22:48;;;;;;;4.20;1.80;;;8.20;99.90;;;-146.41;100.00;57768.22;4999549;28;20104;-70
2022/04/12 06:25:19;;;;;;;4.93;1.65;;;8.50;99.90;;;-146.41;100.00;57768.22;4997620;28;20049;-70
2022/04/12 06:27:51;;;;;;;3.95;1.85;;;8.70;99.90;;;-146.41;100.00;57768.22;4995069;28;20101;-68
2022/04/12 06:30:27;;;;;;;3.42;1.38;;;8.90;99.90;;;-146.41;100.00;57768.22;5004601;28;20120;-69
2022/04/12 06:32:54;;;;;;;5.07;1.45;;;9.10;99.90;;;-146.41;100.00;57768.22;5003198;28;20077;-68
2022/04/12 06:35:21;;;;;;;10.20;1.50;;;9.20;99.90;;;-146.41;100.00;57768.22;4996556;28;20093;-69
2022/04/12 06:37:56;;;;;;;4.32;1.30;;;9.30;99.90;;;-146.41;100.00;57768.22;5004090;28;20074;-68
2022/04/12 06:40:24;;;;;;;3.20;1.52;;;9.30;99.90;;;-146.41;100.00;57768.22;4998636;28;20603;-68
2022/04/12 06:42:52;;;;;;;3.55;1.58;;;9.50;99.90;;;-146.41;100.00;57768.22;4982647;28;20046;-69
2022/04/12 06:45:20;;;;;;;4.22;1.48;;;9.60;99.90;;;-146.41;100.00;57768.22;4987496;28;20057;-69
2022/04/12 06:47:58;;;;;;;5.80;1.80;;;9.80;99.90;;;-146.41;100.00;57768.22;5000486;28;20049;-69
2022/04/12 06:50:29;;;;;;;2.63;1.30;;;10.00;99.90;;;-146.41;100.00;57768.22;5000408;28;20413;-69
2022/04/12 06:52:58;;;;;;;4.88;1.23;;;10.10;99.90;;;-146.41;100.00;57768.22;5001302;28;20129;-69
2022/04/12 06:55:26;;;;;;;4.32;1.30;;;10.30;99.90;;;-146.41;100.00;57768.22;5013538;28;20077;-69
2022/04/12 06:57:53;;;;;;;3.22;1.45;;;10.40;99.90;;;-146.41;100.00;57768.22;5002465;28;20046;-70
2022/04/12 07:00:20;;;;;;;3.70;1.45;;;10.50;99.90;;;-146.41;100.00;57768.22;4987599;28;20121;-69
2022/04/12 07:02:48;;;;;;;3.50;1.42;;;10.70;99.90;;;-146.41;100.00;57768.22;4999635;28;20796;-69
2022/04/12 07:05:16;;;;;;;4.82;1.38;;;10.90;99.90;;;-146.41;100.00;57768.22;5006018;28;20053;-69
2022/04/12 07:07:44;;;;;;;3.80;1.25;;;11.00;99.90;;;-146.41;100.00;57768.22;5000608;28;20431;-68
2022/04/12 07:10:15;;;;;;;3.90;1.20;;;11.20;99.90;;;-146.41;100.00;57768.22;5002410;28;20237;-69
2022/04/12 07:12:44;;;;;;;3.15;1.15;;;11.50;99.90;;;-146.41;100.00;57768.22;5003712;28;20046;-69
2022/04/12 07:15:14;;;;;;;4.40;1.10;;;11.80;99.90;;;-146.41;100.00;57768.22;5005624;28;20132;-69
2022/04/12 07:17:41;;;;;;;4.10;1.30;;;12.00;99.90;;;-146.41;100.00;57768.22;5003279;28;20077;-69
2022/04/12 07:20:10;;;;;;;4.35;1.13;;;12.10;99.90;;;-146.41;100.00;57768.22;5004897;28;20504;-69
2022/04/12 07:22:37;;;;;;;5.20;1.50;;;12.30;99.90;;;-146.41;100.00;57768.22;5005777;28;20069;-70
2022/04/12 07:25:06;;;;;;;4.07;1.27;;;12.50;99.90;;;-146.41;100.00;57768.22;5001052;28;20053;-69
2022/04/12 07:27:38;;;;;;;4.30;1.58;;;12.70;99.90;;;-146.41;100.00;57768.22;5004540;28;20084;-69
2022/04/12 07:30:07;;;;;;;3.35;1.15;;;12.90;99.90;;;-146.41;100.00;57768.22;5004649;28;20176;-69
2022/04/12 07:32:34;;;;;;;3.03;1.25;;;13.10;99.90;;;-146.41;100.00;57768.22;5003564;28;20131;-69
2022/04/12 07:35:01;;;;;;;3.03;1.30;;;13.30;99.90;;;-146.41;100.00;57768.22;5002773;28;20049;-69
2022/04/12 07:37:28;;;;;;;2.70;1.10;;;13.40;99.90;;;-146.41;100.00;57768.22;5004482;28;20081;-69
2022/04/12 07:39:56;;;;;;;2.00;0.90;;;13.60;99.90;;;-146.41;100.00;57768.22;4999328;28;20111;-69
2022/04/12 07:42:24;;;;;;;2.53;1.08;;;13.70;99.90;;;-146.41;100.00;57768.22;5002078;28;20160;-69
2022/04/12 07:44:51;;;;;;;3.13;1.00;;;13.90;99.90;;;-146.41;100.00;57768.22;5002804;28;20061;-69
2022/04/12 07:47:19;;;;;;;4.72;1.75;;;14.00;99.90;;;-146.41;100.00;57768.22;5001813;28;20089;-71
2022/04/12 07:49:46;;;;;;;5.38;1.70;;;14.10;99.90;;;-146.41;100.00;57768.22;5006248;28;20064;-69
2022/04/12 07:52:13;;;;;;;13.15;6.57;;;14.00;99.90;;;-146.41;100.00;57768.22;5001855;28;20416;-68
2022/04/12 07:54:41;;;;;;;16.98;9.48;;;13.90;99.90;;;-146.41;100.00;57768.22;5001125;28;20846;-68
2022/04/12 07:57:08;;;;;;;15.00;7.68;;;14.00;99.90;;;-146.41;100.00;57768.22;5000451;28;20070;-68
2022/04/12 07:59:35;;;;;;;10.85;5.57;;;14.00;99.90;;;-146.41;100.00;57768.22;5002586;28;20081;-69
2022/04/12 08:02:02;;;;;;;11.95;4.18;;;14.00;99.90;;;-146.41;100.00;57768.22;5005267;28;20133;-68
2022/04/12 08:04:29;;;;;;;6.07;2.25;;;14.00;99.90;;;-146.41;100.00;57768.22;5005173;28;20072;-68
2022/04/12 08:06:56;;;;;;;9.43;4.07;;;14.00;99.90;;;-146.41;100.00;57768.22;5004401;28;20141;-68
2022/04/12 08:09:23;;;;;;;10.70;2.58;;;14.10;99.90;;;-146.41;100.00;57768.22;5002351;28;20391;-68
2022/04/12 08:11:50;;;;;;;3.33;1.48;;;14.20;99.90;;;-146.41;100.00;57768.22;5002274;28;20050;-68
2022/04/12 08:14:17;;;;;;;7.65;1.85;;;14.30;99.90;;;-146.41;100.00;57768.22;5002427;28;20058;-68
2022/04/12 08:16:44;;;;;;;4.72;1.70;;;14.50;99.90;;;-146.41;100.00;57768.22;5002206;28;20053;-69
2022/04/12 08:19:11;;;;;;;5.18;1.70;;;14.60;99.90;;;-146.41;100.00;57768.22;5003087;28;20408;-70
2022/04/12 08:21:40;;;;;;;6.55;1.80;;;14.70;99.90;;;-146.41;100.00;57768.22;5006208;28;20053;-69
2022/04/12 08:24:08;;;;;;;5.60;1.40;;;14.90;99.90;;;-146.41;100.00;57768.22;5003813;28;20049;-70
2022/04/12 08:26:39;;;;;;;4.40;1.55;;;15.00;99.90;;;-146.41;100.00;57768.22;5002985;28;20061;-69
2022/04/12 08:29:06;;;;;;;5.85;1.88;;;15.10;99.90;;;-146.41;100.00;57768.22;5003054;28;20073;-69
2022/04/12 08:31:33;;;;;;;9.98;1.75;;;15.20;99.90;;;-146.41;100.00;57768.22;5001014;28;20478;-69
2022/04/12 08:34:00;;;;;;;5.97;2.28;;;15.40;99.90;;;-146.41;100.00;57768.22;5004622;28;20057;-69
2022/04/12 08:36:27;;;;;;;12.50;5.20;;;15.50;99.90;;;-146.41;100.00;57768.22;5002619;28;20041;-69
2022/04/12 08:38:54;;;;;;;4.15;1.77;;;15.70;99.90;;;-146.41;100.00;57768.22;5003428;28;20077;-69
2022/04/12 08:41:26;;;;;;;3.55;1.45;;;15.90;99.90;;;-146.41;100.00;57768.22;5002279;28;20136;-69
2022/04/12 08:43:58;;;;;;;5.78;1.10;;;16.30;99.90;;;-146.41;100.00;57768.22;5000336;28;20057;-69
2022/04/12 08:46:27;;;;;;;7.72;4.35;;;16.70;99.90;;;-146.41;100.00;57768.22;5002814;28;20639;-68
2022/04/12 08:48:57;;;;;;;8.27;4.70;;;17.10;99.90;;;-146.41;100.00;57768.22;5026599;28;20178;-69
2022/04/12 08:51:28;;;;;;;5.28;3.08;;;17.50;99.90;;;-146.41;100.00;57768.22;5007166;28;20413;-69
2022/04/12 08:53:58;;;;;;;6.65;3.22;;;17.80;99.40;;;-146.41;100.00;57768.22;5001881;28;20076;-69
2022/04/12 08:56:28;;;;;;;8.32;2.30;;;17.90;97.80;;;-146.41;100.00;57768.22;5004604;28;20046;-69
2022/04/12 08:58:56;;;;;;;5.32;1.80;;;18.20;95.80;;;-146.41;100.00;57768.22;5003862;28;20129;-69
2022/04/12 09:01:37;;;;;;;3.42;1.35;;;18.50;95.80;;;-146.41;100.00;57768.22;5004588;28;20459;-70
2022/04/12 09:04:04;;;;;;;3.85;1.17;;;18.90;92.60;;;-146.41;100.00;57768.22;5001785;28;20492;-70
2022/04/12 09:06:32;;;;;;;4.03;1.02;;;19.20;90.30;;;-146.41;100.00;57768.22;4996888;28;20215;-70
2022/04/12 09:09:18;;;;;;;2.58;0.80;;;19.40;88.60;;;-146.41;100.00;57768.22;5006504;28;20141;-70
2022/04/12 09:12:00;;;;;;;2.92;0.80;;;19.70;86.10;;;-146.41;100.00;57768.22;4991120;28;20050;-70
2022/04/12 09:14:38;;;;;;;4.00;0.90;;;20.00;83.20;;;-146.41;100.00;57768.22;5002928;28;20050;-72
2022/04/12 09:17:11;;;;;;;2.20;0.80;;;20.50;80.60;;;-146.41;100.00;57768.22;5002090;28;20050;-70
2022/04/12 09:19:39;;;;;;;6.28;1.30;;;20.70;80.40;;;-146.41;100.00;57768.22;4997476;28;20132;-70
2022/04/12 09:22:27;;;;;;;6.53;1.33;;;20.80;86.30;;;-146.41;100.00;57768.22;4993891;28;20215;-70
2022/04/12 09:25:00;;;;;;;6.88;1.13;;;20.90;86.00;;;-146.41;100.00;57768.22;4996662;28;20741;-70
2022/04/12 09:27:29;;;;;;;2.88;1.13;;;21.00;86.30;;;-146.41;100.00;57768.22;5003936;28;20042;-70
2022/04/12 09:30:03;;;;;;;10.85;5.90;;;21.10;86.00;;;-146.41;100.00;57768.22;5004022;28;20070;-70
2022/04/12 09:32:36;;;;;;;3.00;1.00;;;21.30;85.80;;;-146.41;100.00;57768.22;4999765;28;20089;-70
2022/04/12 09:35:05;;;;;;;6.03;2.28;;;21.50;84.10;;;-146.41;100.00;57768.22;5002221;28;20599;-70
2022/04/12 09:37:39;;;;;;;9.65;5.15;;;21.60;83.70;;;-146.41;100.00;57768.22;5002154;28;20136;-70
2022/04/12 09:40:12;;;;;;;5.63;1.90;;;21.80;83.30;;;-146.41;100.00;57768.22;4993566;28;20168;-72
2022/04/12 09:42:49;;;;;;;4.93;1.20;;;22.20;81.70;;;-146.41;100.00;57768.22;4997715;28;20110;-71
2022/04/12 09:45:22;;;;;;;6.78;3.08;;;22.60;81.80;;;-146.41;100.00;57768.22;5000428;28;20047;-71
2022/04/12 09:48:03;;;;;;;3.80;1.20;;;23.10;82.40;;;-146.41;100.00;57768.22;4986277;28;20050;-72
2022/04/12 09:50:51;;;;;;;6.03;3.60;;;23.40;80.10;;;-146.41;100.00;57768.22;4997353;28;20046;-71
2022/04/12 09:53:18;;;;;;;3.42;1.08;;;23.60;78.50;;;-146.41;100.00;57768.22;5000849;28;20069;-71
2022/04/12 09:55:49;;;;;;;2.75;1.52;;;24.00;77.90;;;-146.41;100.00;57768.22;4999835;28;20085;-71
2022/04/12 09:58:21;;;;;;;2.05;0.50;;;24.20;75.50;;;-146.41;100.00;57768.22;4984028;28;20061;-70
2022/04/12 10:00:49;;;;;;;1.58;0.50;;;24.20;67.30;;;-146.41;100.00;57768.22;4998593;28;20041;-72
2022/04/12 10:03:19;;;;;;;2.83;0.50;;;24.10;68.00;;;-146.41;100.00;57768.22;4997612;28;20530;-72
2022/04/12 10:05:47;;;;;;;2.50;0.60;;;24.00;68.60;;;-146.41;100.00;57768.22;4994329;28;20096;-71
2022/04/12 10:08:17;;;;;;;1.70;0.50;;;24.00;69.70;;;-146.41;100.00;57768.22;4996134;28;20046;-73